sensor_id;sensor_type;location;lat;lon;timestamp;P1;durP1;ratioP1;P2;durP2;ratioP2
9138;SDS011;4604;48.616;9.548;2024-01-16T00:02:17;6.73;;;3.50;;
9138;SDS011;4604;48.616;9.548;2024-01-16T00:04:44;8.23;;;3.30;;
9138;SDS011;4604;48.616;9.548;2024-01-16T00:07:10;7.87;;;3.13;;
9138;SDS011;4604;48.616;9.548;2024-01-16T00:09:37;4.60;;;2.63;;
9138;SDS011;4604;48.616;9.548;2024-01-16T00:12:04;5.53;;;3.10;;
9138;SDS011;4604;48.616;9.548;2024-01-16T00:14:34;4.37;;;2.83;;
9138;SDS011;4604;48.616;9.548;2024-01-16T00:17:02;7.17;;;3.00;;
9138;SDS011;4604;48.616;9.548;2024-01-16T00:19:29;6.17;;;3.00;;
9138;SDS011;4604;48.616;9.548;2024-01-16T00:21:56;4.83;;;3.07;;
9138;SDS011;4604;48.616;9.548;2024-01-16T00:24:23;4.70;;;3.13;;
9138;SDS011;4604;48.616;9.548;2024-01-16T00:26:50;7.83;;;3.57;;
9138;SDS011;4604;48.616;9.548;2024-01-16T00:29:16;5.37;;;2.90;;
9138;SDS011;4604;48.616;9.548;2024-01-16T00:31:43;4.70;;;2.83;;
9138;SDS011;4604;48.616;9.548;2024-01-16T00:34:11;4.93;;;3.03;;
9138;SDS011;4604;48.616;9.548;2024-01-16T00:36:37;6.93;;;3.60;;
9138;SDS011;4604;48.616;9.548;2024-01-16T00:39:04;5.37;;;3.17;;
9138;SDS011;4604;48.616;9.548;2024-01-16T00:41:32;3.87;;;2.97;;
9138;SDS011;4604;48.616;9.548;2024-01-16T00:43:59;6.23;;;3.43;;
9138;SDS011;4604;48.616;9.548;2024-01-16T00:46:25;5.73;;;3.43;;
9138;SDS011;4604;48.616;9.548;2024-01-16T00:48:52;4.57;;;3.23;;
9138;SDS011;4604;48.616;9.548;2024-01-16T00:51:20;6.10;;;3.00;;
9138;SDS011;4604;48.616;9.548;2024-01-16T00:53:47;4.50;;;2.90;;
9138;SDS011;4604;48.616;9.548;2024-01-16T00:56:13;6.33;;;3.20;;
9138;SDS011;4604;48.616;9.548;2024-01-16T00:58:40;6.93;;;3.70;;
9138;SDS011;4604;48.616;9.548;2024-01-16T01:01:07;5.90;;;3.53;;
9138;SDS011;4604;48.616;9.548;2024-01-16T01:03:33;5.07;;;2.70;;
9138;SDS011;4604;48.616;9.548;2024-01-16T01:06:00;6.67;;;3.50;;
9138;SDS011;4604;48.616;9.548;2024-01-16T01:08:28;4.13;;;3.10;;
9138;SDS011;4604;48.616;9.548;2024-01-16T01:10:55;5.00;;;2.77;;
9138;SDS011;4604;48.616;9.548;2024-01-16T01:13:21;4.67;;;2.90;;
9138;SDS011;4604;48.616;9.548;2024-01-16T01:15:50;6.80;;;3.00;;
9138;SDS011;4604;48.616;9.548;2024-01-16T01:18:15;4.67;;;2.87;;
9138;SDS011;4604;48.616;9.548;2024-01-16T01:20:42;5.93;;;2.73;;
9138;SDS011;4604;48.616;9.548;2024-01-16T01:23:09;6.20;;;3.23;;
9138;SDS011;4604;48.616;9.548;2024-01-16T01:25:37;7.10;;;3.63;;
9138;SDS011;4604;48.616;9.548;2024-01-16T01:28:04;4.97;;;3.00;;
9138;SDS011;4604;48.616;9.548;2024-01-16T01:30:31;4.20;;;2.93;;
9138;SDS011;4604;48.616;9.548;2024-01-16T01:32:58;6.97;;;2.80;;
9138;SDS011;4604;48.616;9.548;2024-01-16T01:35:24;5.27;;;3.10;;
9138;SDS011;4604;48.616;9.548;2024-01-16T01:37:51;5.97;;;3.00;;
9138;SDS011;4604;48.616;9.548;2024-01-16T01:40:18;4.60;;;2.90;;
9138;SDS011;4604;48.616;9.548;2024-01-16T01:42:46;6.63;;;3.27;;
9138;SDS011;4604;48.616;9.548;2024-01-16T01:45:13;6.07;;;2.97;;
9138;SDS011;4604;48.616;9.548;2024-01-16T01:47:39;5.20;;;3.07;;
9138;SDS011;4604;48.616;9.548;2024-01-16T01:50:08;3.90;;;2.70;;
9138;SDS011;4604;48.616;9.548;2024-01-16T01:52:36;6.60;;;3.17;;
9138;SDS011;4604;48.616;9.548;2024-01-16T01:55:05;5.77;;;3.30;;
9138;SDS011;4604;48.616;9.548;2024-01-16T01:57:36;4.73;;;3.03;;
9138;SDS011;4604;48.616;9.548;2024-01-16T02:00:05;4.80;;;2.80;;
9138;SDS011;4604;48.616;9.548;2024-01-16T02:02:33;4.90;;;3.07;;
9138;SDS011;4604;48.616;9.548;2024-01-16T02:05:00;4.83;;;3.20;;
9138;SDS011;4604;48.616;9.548;2024-01-16T02:07:28;10.80;;;3.23;;
9138;SDS011;4604;48.616;9.548;2024-01-16T02:09:57;4.47;;;2.83;;
9138;SDS011;4604;48.616;9.548;2024-01-16T02:12:25;5.63;;;2.80;;
9138;SDS011;4604;48.616;9.548;2024-01-16T02:14:52;6.03;;;2.70;;
9138;SDS011;4604;48.616;9.548;2024-01-16T02:17:20;4.33;;;2.83;;
9138;SDS011;4604;48.616;9.548;2024-01-16T02:19:47;5.03;;;2.90;;
9138;SDS011;4604;48.616;9.548;2024-01-16T02:22:14;6.20;;;2.90;;
9138;SDS011;4604;48.616;9.548;2024-01-16T02:24:47;3.70;;;2.60;;
9138;SDS011;4604;48.616;9.548;2024-01-16T02:27:14;6.93;;;2.90;;
9138;SDS011;4604;48.616;9.548;2024-01-16T02:29:40;3.77;;;2.47;;
9138;SDS011;4604;48.616;9.548;2024-01-16T02:32:08;4.60;;;2.60;;
9138;SDS011;4604;48.616;9.548;2024-01-16T02:34:36;2.90;;;2.37;;
9138;SDS011;4604;48.616;9.548;2024-01-16T02:37:02;3.87;;;2.70;;
9138;SDS011;4604;48.616;9.548;2024-01-16T02:39:29;4.93;;;3.10;;
9138;SDS011;4604;48.616;9.548;2024-01-16T02:41:57;7.67;;;3.03;;
9138;SDS011;4604;48.616;9.548;2024-01-16T02:44:24;3.33;;;2.63;;
9138;SDS011;4604;48.616;9.548;2024-01-16T02:46:51;5.57;;;2.80;;
9138;SDS011;4604;48.616;9.548;2024-01-16T02:49:18;6.23;;;3.00;;
9138;SDS011;4604;48.616;9.548;2024-01-16T02:51:44;3.90;;;2.73;;
9138;SDS011;4604;48.616;9.548;2024-01-16T02:54:11;3.77;;;2.67;;
9138;SDS011;4604;48.616;9.548;2024-01-16T02:56:38;4.30;;;2.63;;
9138;SDS011;4604;48.616;9.548;2024-01-16T02:59:06;4.83;;;2.90;;
9138;SDS011;4604;48.616;9.548;2024-01-16T03:01:32;5.87;;;3.30;;
9138;SDS011;4604;48.616;9.548;2024-01-16T03:03:59;6.17;;;2.83;;
9138;SDS011;4604;48.616;9.548;2024-01-16T03:06:26;5.60;;;3.23;;
9138;SDS011;4604;48.616;9.548;2024-01-16T03:08:53;4.93;;;2.97;;
9138;SDS011;4604;48.616;9.548;2024-01-16T03:11:20;6.07;;;2.87;;
9138;SDS011;4604;48.616;9.548;2024-01-16T03:13:47;4.67;;;3.07;;
9138;SDS011;4604;48.616;9.548;2024-01-16T03:16:16;4.87;;;2.57;;
9138;SDS011;4604;48.616;9.548;2024-01-16T03:18:41;5.70;;;2.70;;
9138;SDS011;4604;48.616;9.548;2024-01-16T03:21:08;5.83;;;3.20;;
9138;SDS011;4604;48.616;9.548;2024-01-16T03:23:35;4.40;;;2.77;;
9138;SDS011;4604;48.616;9.548;2024-01-16T03:26:01;6.80;;;2.90;;
9138;SDS011;4604;48.616;9.548;2024-01-16T03:28:28;3.63;;;2.50;;
9138;SDS011;4604;48.616;9.548;2024-01-16T03:30:55;3.80;;;2.67;;
9138;SDS011;4604;48.616;9.548;2024-01-16T03:33:23;6.20;;;3.30;;
9138;SDS011;4604;48.616;9.548;2024-01-16T03:35:50;5.00;;;2.43;;
9138;SDS011;4604;48.616;9.548;2024-01-16T03:38:17;6.00;;;3.43;;
9138;SDS011;4604;48.616;9.548;2024-01-16T03:40:44;4.53;;;2.77;;
9138;SDS011;4604;48.616;9.548;2024-01-16T03:43:10;5.67;;;3.30;;
9138;SDS011;4604;48.616;9.548;2024-01-16T03:45:37;7.40;;;2.50;;
9138;SDS011;4604;48.616;9.548;2024-01-16T03:48:04;3.63;;;2.80;;
9138;SDS011;4604;48.616;9.548;2024-01-16T03:50:33;4.07;;;2.60;;
9138;SDS011;4604;48.616;9.548;2024-01-16T03:53:01;5.70;;;2.60;;
9138;SDS011;4604;48.616;9.548;2024-01-16T03:55:29;5.87;;;2.70;;
9138;SDS011;4604;48.616;9.548;2024-01-16T03:57:55;4.67;;;2.90;;
9138;SDS011;4604;48.616;9.548;2024-01-16T04:00:22;6.80;;;3.07;;
9138;SDS011;4604;48.616;9.548;2024-01-16T04:02:48;4.77;;;2.90;;
9138;SDS011;4604;48.616;9.548;2024-01-16T04:05:15;5.60;;;3.40;;
9138;SDS011;4604;48.616;9.548;2024-01-16T04:07:43;4.13;;;2.80;;
9138;SDS011;4604;48.616;9.548;2024-01-16T04:10:10;4.83;;;2.83;;
9138;SDS011;4604;48.616;9.548;2024-01-16T04:12:36;3.30;;;2.60;;
9138;SDS011;4604;48.616;9.548;2024-01-16T04:15:03;5.83;;;2.77;;
9138;SDS011;4604;48.616;9.548;2024-01-16T04:17:30;3.60;;;2.73;;
9138;SDS011;4604;48.616;9.548;2024-01-16T04:19:57;3.63;;;2.67;;
9138;SDS011;4604;48.616;9.548;2024-01-16T04:22:24;4.07;;;2.70;;
9138;SDS011;4604;48.616;9.548;2024-01-16T04:24:52;4.50;;;2.57;;
9138;SDS011;4604;48.616;9.548;2024-01-16T04:27:19;3.97;;;2.63;;
9138;SDS011;4604;48.616;9.548;2024-01-16T04:29:45;6.13;;;2.97;;
9138;SDS011;4604;48.616;9.548;2024-01-16T04:32:12;3.73;;;2.60;;
9138;SDS011;4604;48.616;9.548;2024-01-16T04:34:39;7.83;;;3.07;;
9138;SDS011;4604;48.616;9.548;2024-01-16T04:37:05;5.37;;;2.80;;
9138;SDS011;4604;48.616;9.548;2024-01-16T04:39:32;4.37;;;2.93;;
9138;SDS011;4604;48.616;9.548;2024-01-16T04:42:00;4.30;;;2.70;;
9138;SDS011;4604;48.616;9.548;2024-01-16T04:44:27;5.70;;;3.17;;
9138;SDS011;4604;48.616;9.548;2024-01-16T04:46:53;4.67;;;3.13;;
9138;SDS011;4604;48.616;9.548;2024-01-16T04:49:20;8.03;;;3.10;;
9138;SDS011;4604;48.616;9.548;2024-01-16T04:51:47;3.47;;;2.60;;
9138;SDS011;4604;48.616;9.548;2024-01-16T04:54:13;6.17;;;3.20;;
9138;SDS011;4604;48.616;9.548;2024-01-16T04:56:40;4.70;;;2.80;;
9138;SDS011;4604;48.616;9.548;2024-01-16T04:59:08;5.10;;;3.17;;
9138;SDS011;4604;48.616;9.548;2024-01-16T05:01:35;5.43;;;2.93;;
9138;SDS011;4604;48.616;9.548;2024-01-16T05:04:02;11.87;;;3.37;;
9138;SDS011;4604;48.616;9.548;2024-01-16T05:06:29;3.57;;;2.70;;
9138;SDS011;4604;48.616;9.548;2024-01-16T05:08:59;4.63;;;3.10;;
9138;SDS011;4604;48.616;9.548;2024-01-16T05:11:25;6.40;;;2.90;;
9138;SDS011;4604;48.616;9.548;2024-01-16T05:13:52;3.23;;;2.40;;
9138;SDS011;4604;48.616;9.548;2024-01-16T05:16:24;3.80;;;2.60;;
9138;SDS011;4604;48.616;9.548;2024-01-16T05:18:51;9.37;;;3.40;;
9138;SDS011;4604;48.616;9.548;2024-01-16T05:21:17;4.20;;;2.80;;
9138;SDS011;4604;48.616;9.548;2024-01-16T05:23:44;5.13;;;2.80;;
9138;SDS011;4604;48.616;9.548;2024-01-16T05:26:11;9.73;;;3.30;;
9138;SDS011;4604;48.616;9.548;2024-01-16T05:28:38;5.27;;;3.30;;
9138;SDS011;4604;48.616;9.548;2024-01-16T05:31:05;7.57;;;3.17;;
9138;SDS011;4604;48.616;9.548;2024-01-16T05:33:33;6.00;;;3.20;;
9138;SDS011;4604;48.616;9.548;2024-01-16T05:36:00;7.40;;;3.33;;
9138;SDS011;4604;48.616;9.548;2024-01-16T05:38:27;5.50;;;3.30;;
9138;SDS011;4604;48.616;9.548;2024-01-16T05:40:54;6.90;;;3.13;;
9138;SDS011;4604;48.616;9.548;2024-01-16T05:43:20;6.93;;;3.27;;
9138;SDS011;4604;48.616;9.548;2024-01-16T05:45:47;5.93;;;2.93;;
9138;SDS011;4604;48.616;9.548;2024-01-16T05:48:15;3.67;;;2.67;;
9138;SDS011;4604;48.616;9.548;2024-01-16T05:50:43;3.53;;;2.67;;
9138;SDS011;4604;48.616;9.548;2024-01-16T05:53:10;5.50;;;3.10;;
9138;SDS011;4604;48.616;9.548;2024-01-16T05:55:36;4.30;;;3.00;;
9138;SDS011;4604;48.616;9.548;2024-01-16T05:58:03;4.03;;;2.90;;
9138;SDS011;4604;48.616;9.548;2024-01-16T06:00:30;3.63;;;2.90;;
9138;SDS011;4604;48.616;9.548;2024-01-16T06:02:58;6.83;;;3.00;;
9138;SDS011;4604;48.616;9.548;2024-01-16T06:05:25;5.43;;;2.57;;
9138;SDS011;4604;48.616;9.548;2024-01-16T06:07:53;2.83;;;2.43;;
9138;SDS011;4604;48.616;9.548;2024-01-16T06:10:20;2.60;;;2.40;;
9138;SDS011;4604;48.616;9.548;2024-01-16T06:12:47;3.60;;;2.37;;
9138;SDS011;4604;48.616;9.548;2024-01-16T06:15:14;3.80;;;2.60;;
9138;SDS011;4604;48.616;9.548;2024-01-16T06:17:40;6.17;;;3.20;;
9138;SDS011;4604;48.616;9.548;2024-01-16T06:20:07;6.47;;;3.23;;
9138;SDS011;4604;48.616;9.548;2024-01-16T06:22:35;6.90;;;2.73;;
9138;SDS011;4604;48.616;9.548;2024-01-16T06:25:04;4.23;;;2.53;;
9138;SDS011;4604;48.616;9.548;2024-01-16T06:27:31;5.53;;;2.77;;
9138;SDS011;4604;48.616;9.548;2024-01-16T06:29:58;5.47;;;2.93;;
9138;SDS011;4604;48.616;9.548;2024-01-16T06:32:25;6.00;;;3.40;;
9138;SDS011;4604;48.616;9.548;2024-01-16T06:34:51;4.73;;;3.10;;
9138;SDS011;4604;48.616;9.548;2024-01-16T06:37:18;4.43;;;2.70;;
9138;SDS011;4604;48.616;9.548;2024-01-16T06:39:45;3.33;;;2.33;;
9138;SDS011;4604;48.616;9.548;2024-01-16T06:42:13;4.83;;;2.30;;
9138;SDS011;4604;48.616;9.548;2024-01-16T06:44:39;2.83;;;2.40;;
9138;SDS011;4604;48.616;9.548;2024-01-16T06:47:06;6.93;;;3.17;;
9138;SDS011;4604;48.616;9.548;2024-01-16T06:49:33;4.60;;;3.13;;
9138;SDS011;4604;48.616;9.548;2024-01-16T06:52:00;2.70;;;2.40;;
9138;SDS011;4604;48.616;9.548;2024-01-16T06:54:26;5.60;;;2.90;;
9138;SDS011;4604;48.616;9.548;2024-01-16T06:56:53;4.63;;;2.80;;
9138;SDS011;4604;48.616;9.548;2024-01-16T06:59:21;4.83;;;2.47;;
9138;SDS011;4604;48.616;9.548;2024-01-16T07:01:48;4.77;;;2.80;;
9138;SDS011;4604;48.616;9.548;2024-01-16T07:04:14;5.10;;;3.13;;
9138;SDS011;4604;48.616;9.548;2024-01-16T07:06:41;4.00;;;2.87;;
9138;SDS011;4604;48.616;9.548;2024-01-16T07:09:08;4.43;;;2.80;;
9138;SDS011;4604;48.616;9.548;2024-01-16T07:11:36;5.10;;;3.30;;
9138;SDS011;4604;48.616;9.548;2024-01-16T07:14:03;3.73;;;2.73;;
9138;SDS011;4604;48.616;9.548;2024-01-16T07:16:34;6.10;;;3.33;;
9138;SDS011;4604;48.616;9.548;2024-01-16T07:19:00;6.13;;;3.40;;
9138;SDS011;4604;48.616;9.548;2024-01-16T07:21:27;10.03;;;3.60;;
9138;SDS011;4604;48.616;9.548;2024-01-16T07:23:54;9.03;;;4.10;;
9138;SDS011;4604;48.616;9.548;2024-01-16T07:26:21;14.43;;;5.17;;
9138;SDS011;4604;48.616;9.548;2024-01-16T07:28:48;13.73;;;6.00;;
9138;SDS011;4604;48.616;9.548;2024-01-16T07:31:15;10.40;;;5.77;;
9138;SDS011;4604;48.616;9.548;2024-01-16T07:33:43;9.63;;;4.97;;
9138;SDS011;4604;48.616;9.548;2024-01-16T07:36:11;8.83;;;4.53;;
9138;SDS011;4604;48.616;9.548;2024-01-16T07:38:38;5.97;;;3.90;;
9138;SDS011;4604;48.616;9.548;2024-01-16T07:41:04;9.70;;;3.80;;
9138;SDS011;4604;48.616;9.548;2024-01-16T07:43:31;6.17;;;3.70;;
9138;SDS011;4604;48.616;9.548;2024-01-16T07:45:59;8.97;;;4.07;;
9138;SDS011;4604;48.616;9.548;2024-01-16T07:48:26;7.00;;;4.13;;
9138;SDS011;4604;48.616;9.548;2024-01-16T07:50:54;6.47;;;3.47;;
9138;SDS011;4604;48.616;9.548;2024-01-16T07:53:20;6.50;;;3.40;;
9138;SDS011;4604;48.616;9.548;2024-01-16T07:55:47;5.10;;;3.27;;
9138;SDS011;4604;48.616;9.548;2024-01-16T07:58:14;3.93;;;3.07;;
9138;SDS011;4604;48.616;9.548;2024-01-16T08:00:42;4.50;;;2.60;;
9138;SDS011;4604;48.616;9.548;2024-01-16T08:03:09;3.43;;;2.47;;
9138;SDS011;4604;48.616;9.548;2024-01-16T08:05:39;3.80;;;2.63;;
9138;SDS011;4604;48.616;9.548;2024-01-16T08:08:09;8.53;;;3.47;;
9138;SDS011;4604;48.616;9.548;2024-01-16T08:10:35;4.00;;;2.77;;
9138;SDS011;4604;48.616;9.548;2024-01-16T08:13:02;5.90;;;3.13;;
9138;SDS011;4604;48.616;9.548;2024-01-16T08:15:29;8.90;;;3.40;;
9138;SDS011;4604;48.616;9.548;2024-01-16T08:17:56;4.77;;;3.30;;
9138;SDS011;4604;48.616;9.548;2024-01-16T08:20:23;5.23;;;3.33;;
9138;SDS011;4604;48.616;9.548;2024-01-16T08:22:50;4.27;;;3.37;;
9138;SDS011;4604;48.616;9.548;2024-01-16T08:25:18;5.97;;;3.83;;
9138;SDS011;4604;48.616;9.548;2024-01-16T08:27:45;5.43;;;3.10;;
9138;SDS011;4604;48.616;9.548;2024-01-16T08:30:11;4.63;;;3.00;;
9138;SDS011;4604;48.616;9.548;2024-01-16T08:32:38;4.67;;;3.37;;
9138;SDS011;4604;48.616;9.548;2024-01-16T08:35:05;6.60;;;3.27;;
9138;SDS011;4604;48.616;9.548;2024-01-16T08:37:33;4.50;;;2.93;;
9138;SDS011;4604;48.616;9.548;2024-01-16T08:40:00;7.57;;;2.97;;
9138;SDS011;4604;48.616;9.548;2024-01-16T08:42:29;5.53;;;3.43;;
9138;SDS011;4604;48.616;9.548;2024-01-16T08:44:56;4.87;;;3.07;;
9138;SDS011;4604;48.616;9.548;2024-01-16T08:47:23;4.27;;;2.73;;
9138;SDS011;4604;48.616;9.548;2024-01-16T08:49:49;4.40;;;2.60;;
9138;SDS011;4604;48.616;9.548;2024-01-16T08:52:16;6.03;;;2.80;;
9138;SDS011;4604;48.616;9.548;2024-01-16T08:54:43;3.13;;;2.23;;
9138;SDS011;4604;48.616;9.548;2024-01-16T08:57:10;4.70;;;2.63;;
9138;SDS011;4604;48.616;9.548;2024-01-16T08:59:39;3.70;;;2.97;;
9138;SDS011;4604;48.616;9.548;2024-01-16T09:02:06;6.63;;;3.00;;
9138;SDS011;4604;48.616;9.548;2024-01-16T09:04:34;4.53;;;2.87;;
9138;SDS011;4604;48.616;9.548;2024-01-16T09:07:00;5.63;;;3.20;;
9138;SDS011;4604;48.616;9.548;2024-01-16T09:09:29;4.97;;;3.13;;
9138;SDS011;4604;48.616;9.548;2024-01-16T09:11:56;10.33;;;4.10;;
9138;SDS011;4604;48.616;9.548;2024-01-16T09:14:23;5.37;;;3.10;;
9138;SDS011;4604;48.616;9.548;2024-01-16T09:16:51;5.60;;;3.80;;
9138;SDS011;4604;48.616;9.548;2024-01-16T09:19:19;5.63;;;2.97;;
9138;SDS011;4604;48.616;9.548;2024-01-16T09:21:45;6.27;;;3.60;;
9138;SDS011;4604;48.616;9.548;2024-01-16T09:24:12;5.57;;;2.73;;
9138;SDS011;4604;48.616;9.548;2024-01-16T09:26:39;2.60;;;2.30;;
9138;SDS011;4604;48.616;9.548;2024-01-16T09:29:05;4.23;;;3.10;;
9138;SDS011;4604;48.616;9.548;2024-01-16T09:31:33;4.40;;;2.50;;
9138;SDS011;4604;48.616;9.548;2024-01-16T09:34:05;3.73;;;2.50;;
9138;SDS011;4604;48.616;9.548;2024-01-16T09:36:31;7.87;;;3.07;;
9138;SDS011;4604;48.616;9.548;2024-01-16T09:39:00;5.10;;;2.50;;
9138;SDS011;4604;48.616;9.548;2024-01-16T09:41:27;2.57;;;2.23;;
9138;SDS011;4604;48.616;9.548;2024-01-16T09:43:57;5.60;;;3.00;;
9138;SDS011;4604;48.616;9.548;2024-01-16T09:46:24;6.10;;;3.87;;
9138;SDS011;4604;48.616;9.548;2024-01-16T09:48:52;6.13;;;3.60;;
9138;SDS011;4604;48.616;9.548;2024-01-16T09:51:22;8.40;;;3.77;;
9138;SDS011;4604;48.616;9.548;2024-01-16T09:53:49;7.87;;;4.20;;
9138;SDS011;4604;48.616;9.548;2024-01-16T09:56:18;8.13;;;3.67;;
9138;SDS011;4604;48.616;9.548;2024-01-16T09:58:50;8.40;;;4.80;;
9138;SDS011;4604;48.616;9.548;2024-01-16T10:01:25;10.87;;;4.53;;
9138;SDS011;4604;48.616;9.548;2024-01-16T10:03:53;10.67;;;4.17;;
9138;SDS011;4604;48.616;9.548;2024-01-16T10:06:20;7.00;;;4.30;;
9138;SDS011;4604;48.616;9.548;2024-01-16T10:08:49;12.63;;;4.73;;
9138;SDS011;4604;48.616;9.548;2024-01-16T10:11:15;7.83;;;3.93;;
9138;SDS011;4604;48.616;9.548;2024-01-16T10:13:43;14.70;;;4.70;;
9138;SDS011;4604;48.616;9.548;2024-01-16T10:16:10;11.03;;;4.80;;
9138;SDS011;4604;48.616;9.548;2024-01-16T10:18:37;7.40;;;3.90;;
9138;SDS011;4604;48.616;9.548;2024-01-16T10:21:04;4.73;;;3.37;;
9138;SDS011;4604;48.616;9.548;2024-01-16T10:23:32;7.13;;;4.00;;
9138;SDS011;4604;48.616;9.548;2024-01-16T10:26:07;6.83;;;4.10;;
9138;SDS011;4604;48.616;9.548;2024-01-16T10:28:34;7.43;;;4.50;;
9138;SDS011;4604;48.616;9.548;2024-01-16T10:31:02;7.53;;;4.60;;
9138;SDS011;4604;48.616;9.548;2024-01-16T10:33:29;9.57;;;4.53;;
9138;SDS011;4604;48.616;9.548;2024-01-16T10:36:07;6.90;;;3.90;;
9138;SDS011;4604;48.616;9.548;2024-01-16T10:38:35;13.17;;;4.20;;
9138;SDS011;4604;48.616;9.548;2024-01-16T10:41:08;8.03;;;3.43;;
9138;SDS011;4604;48.616;9.548;2024-01-16T10:43:35;7.67;;;3.70;;
9138;SDS011;4604;48.616;9.548;2024-01-16T10:46:09;8.97;;;4.20;;
9138;SDS011;4604;48.616;9.548;2024-01-16T10:48:37;6.10;;;3.27;;
9138;SDS011;4604;48.616;9.548;2024-01-16T10:51:05;6.77;;;3.70;;
9138;SDS011;4604;48.616;9.548;2024-01-16T10:53:33;5.17;;;3.23;;
9138;SDS011;4604;48.616;9.548;2024-01-16T10:56:01;7.93;;;3.33;;
9138;SDS011;4604;48.616;9.548;2024-01-16T10:58:30;5.87;;;3.50;;
9138;SDS011;4604;48.616;9.548;2024-01-16T11:01:01;7.43;;;4.10;;
9138;SDS011;4604;48.616;9.548;2024-01-16T11:03:34;6.03;;;3.43;;
9138;SDS011;4604;48.616;9.548;2024-01-16T11:06:04;5.10;;;3.63;;
9138;SDS011;4604;48.616;9.548;2024-01-16T11:08:33;9.47;;;4.03;;
9138;SDS011;4604;48.616;9.548;2024-01-16T11:11:01;6.43;;;4.10;;
9138;SDS011;4604;48.616;9.548;2024-01-16T11:13:31;4.77;;;3.07;;
9138;SDS011;4604;48.616;9.548;2024-01-16T11:15:59;5.53;;;3.57;;
9138;SDS011;4604;48.616;9.548;2024-01-16T11:18:26;6.53;;;4.10;;
9138;SDS011;4604;48.616;9.548;2024-01-16T11:20:55;7.83;;;3.60;;
9138;SDS011;4604;48.616;9.548;2024-01-16T11:23:23;5.70;;;3.90;;
9138;SDS011;4604;48.616;9.548;2024-01-16T11:25:51;5.53;;;3.57;;
9138;SDS011;4604;48.616;9.548;2024-01-16T11:28:17;6.50;;;3.13;;
9138;SDS011;4604;48.616;9.548;2024-01-16T11:30:46;5.60;;;2.87;;
9138;SDS011;4604;48.616;9.548;2024-01-16T11:39:19;6.77;;;3.43;;
9138;SDS011;4604;48.616;9.548;2024-01-16T11:41:50;6.97;;;3.20;;
9138;SDS011;4604;48.616;9.548;2024-01-16T11:44:38;5.87;;;3.17;;
9138;SDS011;4604;48.616;9.548;2024-01-16T11:47:08;4.63;;;2.63;;
9138;SDS011;4604;48.616;9.548;2024-01-16T11:49:35;5.83;;;2.40;;
9138;SDS011;4604;48.616;9.548;2024-01-16T11:52:02;3.40;;;2.37;;
9138;SDS011;4604;48.616;9.548;2024-01-16T11:54:29;4.57;;;2.60;;
9138;SDS011;4604;48.616;9.548;2024-01-16T11:59:58;6.60;;;3.43;;
9138;SDS011;4604;48.616;9.548;2024-01-16T12:02:29;4.87;;;2.90;;
9138;SDS011;4604;48.616;9.548;2024-01-16T12:05:03;5.47;;;3.03;;
9138;SDS011;4604;48.616;9.548;2024-01-16T12:07:42;3.63;;;2.53;;
9138;SDS011;4604;48.616;9.548;2024-01-16T12:10:09;5.07;;;2.80;;
9138;SDS011;4604;48.616;9.548;2024-01-16T12:12:35;4.03;;;2.67;;
9138;SDS011;4604;48.616;9.548;2024-01-16T12:15:02;6.63;;;3.27;;
9138;SDS011;4604;48.616;9.548;2024-01-16T12:17:33;4.73;;;3.00;;
9138;SDS011;4604;48.616;9.548;2024-01-16T12:20:00;9.47;;;3.13;;
9138;SDS011;4604;48.616;9.548;2024-01-16T12:22:26;4.93;;;2.90;;
9138;SDS011;4604;48.616;9.548;2024-01-16T12:24:55;6.70;;;2.73;;
9138;SDS011;4604;48.616;9.548;2024-01-16T12:27:23;5.03;;;3.00;;
9138;SDS011;4604;48.616;9.548;2024-01-16T12:30:04;6.70;;;2.97;;
9138;SDS011;4604;48.616;9.548;2024-01-16T12:32:33;7.20;;;3.20;;
9138;SDS011;4604;48.616;9.548;2024-01-16T12:35:00;8.77;;;3.17;;
9138;SDS011;4604;48.616;9.548;2024-01-16T12:37:27;4.73;;;2.80;;
9138;SDS011;4604;48.616;9.548;2024-01-16T12:39:54;5.47;;;3.07;;
9138;SDS011;4604;48.616;9.548;2024-01-16T12:42:22;4.23;;;2.57;;
9138;SDS011;4604;48.616;9.548;2024-01-16T12:44:51;4.93;;;2.97;;
9138;SDS011;4604;48.616;9.548;2024-01-16T12:47:18;7.17;;;3.00;;
9138;SDS011;4604;48.616;9.548;2024-01-16T12:49:47;5.67;;;2.60;;
9138;SDS011;4604;48.616;9.548;2024-01-16T12:52:14;7.67;;;3.13;;
9138;SDS011;4604;48.616;9.548;2024-01-16T12:54:45;5.67;;;3.20;;
9138;SDS011;4604;48.616;9.548;2024-01-16T12:57:18;6.43;;;2.77;;
9138;SDS011;4604;48.616;9.548;2024-01-16T12:59:46;4.83;;;3.20;;
9138;SDS011;4604;48.616;9.548;2024-01-16T13:02:19;7.27;;;3.03;;
9138;SDS011;4604;48.616;9.548;2024-01-16T13:04:48;3.53;;;2.63;;
9138;SDS011;4604;48.616;9.548;2024-01-16T13:07:23;7.90;;;2.97;;
9138;SDS011;4604;48.616;9.548;2024-01-16T13:09:51;5.83;;;2.80;;
9138;SDS011;4604;48.616;9.548;2024-01-16T13:12:32;4.77;;;2.67;;
9138;SDS011;4604;48.616;9.548;2024-01-16T13:15:00;5.73;;;2.80;;
9138;SDS011;4604;48.616;9.548;2024-01-16T13:17:30;4.97;;;3.20;;
9138;SDS011;4604;48.616;9.548;2024-01-16T13:19:59;5.70;;;3.33;;
9138;SDS011;4604;48.616;9.548;2024-01-16T13:22:25;4.27;;;2.57;;
9138;SDS011;4604;48.616;9.548;2024-01-16T13:24:52;3.07;;;2.50;;
9138;SDS011;4604;48.616;9.548;2024-01-16T13:27:19;4.20;;;2.73;;
9138;SDS011;4604;48.616;9.548;2024-01-16T13:29:45;6.20;;;2.93;;
9138;SDS011;4604;48.616;9.548;2024-01-16T13:32:12;4.20;;;2.60;;
9138;SDS011;4604;48.616;9.548;2024-01-16T13:34:39;5.77;;;3.10;;
9138;SDS011;4604;48.616;9.548;2024-01-16T13:37:12;5.77;;;2.80;;
9138;SDS011;4604;48.616;9.548;2024-01-16T13:39:48;6.63;;;2.77;;
9138;SDS011;4604;48.616;9.548;2024-01-16T13:42:15;6.27;;;2.93;;
9138;SDS011;4604;48.616;9.548;2024-01-16T13:44:45;6.53;;;2.60;;
9138;SDS011;4604;48.616;9.548;2024-01-16T13:47:12;3.53;;;2.23;;
9138;SDS011;4604;48.616;9.548;2024-01-16T13:49:40;5.63;;;3.17;;
9138;SDS011;4604;48.616;9.548;2024-01-16T13:52:07;8.10;;;4.37;;
9138;SDS011;4604;48.616;9.548;2024-01-16T13:54:37;6.50;;;2.90;;
9138;SDS011;4604;48.616;9.548;2024-01-16T13:57:05;4.43;;;2.63;;
9138;SDS011;4604;48.616;9.548;2024-01-16T13:59:32;5.27;;;3.10;;
9138;SDS011;4604;48.616;9.548;2024-01-16T14:01:58;5.97;;;3.00;;
9138;SDS011;4604;48.616;9.548;2024-01-16T14:04:26;7.33;;;3.00;;
9138;SDS011;4604;48.616;9.548;2024-01-16T14:06:52;3.47;;;2.70;;
9138;SDS011;4604;48.616;9.548;2024-01-16T14:09:19;6.13;;;2.60;;
9138;SDS011;4604;48.616;9.548;2024-01-16T14:11:47;6.37;;;2.23;;
9138;SDS011;4604;48.616;9.548;2024-01-16T14:14:14;4.20;;;2.53;;
9138;SDS011;4604;48.616;9.548;2024-01-16T14:16:40;3.13;;;2.47;;
9138;SDS011;4604;48.616;9.548;2024-01-16T14:19:07;7.90;;;2.90;;
9138;SDS011;4604;48.616;9.548;2024-01-16T14:21:34;6.73;;;4.20;;
9138;SDS011;4604;48.616;9.548;2024-01-16T14:24:00;6.70;;;3.50;;
9138;SDS011;4604;48.616;9.548;2024-01-16T14:26:27;4.87;;;3.37;;
9138;SDS011;4604;48.616;9.548;2024-01-16T14:28:55;4.37;;;3.07;;
9138;SDS011;4604;48.616;9.548;2024-01-16T14:31:22;5.60;;;3.33;;
9138;SDS011;4604;48.616;9.548;2024-01-16T14:33:49;3.70;;;2.90;;
9138;SDS011;4604;48.616;9.548;2024-01-16T14:36:16;4.57;;;2.70;;
9138;SDS011;4604;48.616;9.548;2024-01-16T14:38:43;5.57;;;3.50;;
9138;SDS011;4604;48.616;9.548;2024-01-16T14:41:10;6.87;;;3.30;;
9138;SDS011;4604;48.616;9.548;2024-01-16T14:43:37;4.23;;;2.57;;
9138;SDS011;4604;48.616;9.548;2024-01-16T14:46:05;8.47;;;4.10;;
9138;SDS011;4604;48.616;9.548;2024-01-16T14:48:35;7.47;;;3.30;;
9138;SDS011;4604;48.616;9.548;2024-01-16T14:51:02;5.30;;;3.03;;
9138;SDS011;4604;48.616;9.548;2024-01-16T14:53:29;5.33;;;2.77;;
9138;SDS011;4604;48.616;9.548;2024-01-16T14:55:56;4.27;;;2.93;;
9138;SDS011;4604;48.616;9.548;2024-01-16T14:58:23;3.47;;;2.33;;
9138;SDS011;4604;48.616;9.548;2024-01-16T15:00:50;4.50;;;2.50;;
9138;SDS011;4604;48.616;9.548;2024-01-16T15:03:20;5.73;;;2.90;;
9138;SDS011;4604;48.616;9.548;2024-01-16T15:05:47;4.43;;;2.77;;
9138;SDS011;4604;48.616;9.548;2024-01-16T15:08:14;4.73;;;2.43;;
9138;SDS011;4604;48.616;9.548;2024-01-16T15:10:43;4.00;;;2.63;;
9138;SDS011;4604;48.616;9.548;2024-01-16T15:13:10;7.70;;;3.10;;
9138;SDS011;4604;48.616;9.548;2024-01-16T15:15:37;5.37;;;3.33;;
9138;SDS011;4604;48.616;9.548;2024-01-16T15:18:04;4.90;;;3.00;;
9138;SDS011;4604;48.616;9.548;2024-01-16T15:20:32;7.13;;;3.97;;
9138;SDS011;4604;48.616;9.548;2024-01-16T15:22:59;5.53;;;3.80;;
9138;SDS011;4604;48.616;9.548;2024-01-16T15:25:26;7.23;;;4.43;;
9138;SDS011;4604;48.616;9.548;2024-01-16T15:27:53;7.60;;;4.17;;